createdAt,value
2023-04-07T00:07:04.825Z,94.60
2023-04-07T00:22:09.264Z,95.30
2023-04-07T00:37:13.684Z,95.60
2023-04-07T00:52:19.868Z,96.00
2023-04-07T01:07:28.704Z,95.60
2023-04-07T01:22:48.559Z,95.50
2023-04-07T01:37:54.334Z,96.90
2023-04-07T01:52:59.241Z,97.50
2023-04-07T02:08:07.093Z,98.10
2023-04-07T02:23:14.597Z,97.90
2023-04-07T02:38:19.426Z,99.90
2023-04-07T02:53:23.947Z,99.50
2023-04-07T03:08:28.629Z,99.90
2023-04-07T03:23:34.114Z,99.90
2023-04-07T03:38:38.590Z,99.90
2023-04-07T03:53:43.120Z,99.90
2023-04-07T04:09:00.297Z,99.90
2023-04-07T04:24:05.085Z,99.90
2023-04-07T04:39:09.679Z,99.90
2023-04-07T04:54:17.304Z,99.90
2023-04-07T05:09:23.147Z,99.90
2023-04-07T05:24:29.589Z,99.90
2023-04-07T05:39:37.532Z,99.90
2023-04-07T05:54:46.108Z,99.90
2023-04-07T06:09:52.808Z,99.90
2023-04-07T06:24:57.395Z,99.90
2023-04-07T06:40:02.258Z,99.90
2023-04-07T06:55:07.886Z,99.90
2023-04-07T07:10:12.634Z,99.90
2023-04-07T07:25:17.257Z,99.90
2023-04-07T07:40:22.060Z,99.90
2023-04-07T07:55:26.524Z,99.90
2023-04-07T08:10:31.151Z,99.90
2023-04-07T08:25:36.380Z,99.90
2023-04-07T08:40:40.897Z,99.90
2023-04-07T08:55:45.472Z,99.90
2023-04-07T09:10:49.958Z,99.90
2023-04-07T09:25:54.449Z,99.90
2023-04-07T09:41:07.798Z,99.90
2023-04-07T09:56:12.989Z,99.70
2023-04-07T10:11:18.059Z,98.80
2023-04-07T10:26:27.569Z,95.70
2023-04-07T10:41:36.900Z,94.00
2023-04-07T10:57:10.494Z,93.70
2023-04-07T11:12:25.125Z,90.40
2023-04-07T11:27:30.696Z,91.00
2023-04-07T11:42:36.244Z,90.40
2023-04-07T11:57:40.811Z,83.30
2023-04-07T12:12:47.268Z,82.60
2023-04-07T12:27:52.089Z,85.40
2023-04-07T12:42:58.263Z,83.40
2023-04-07T12:58:03.127Z,81.00
2023-04-07T13:13:07.535Z,81.10
2023-04-07T13:28:12.271Z,78.30
2023-04-07T13:43:18.559Z,79.10
2023-04-07T13:58:23.040Z,76.40
2023-04-07T14:13:27.521Z,74.00
2023-04-07T14:28:31.995Z,71.50
2023-04-07T14:43:36.617Z,56.70
2023-04-07T14:58:41.348Z,57.80
2023-04-07T15:13:46.266Z,50.50
2023-04-07T15:28:50.857Z,63.90
2023-04-07T15:43:55.560Z,67.40
2023-04-07T15:58:59.993Z,63.30
2023-04-07T16:14:04.360Z,60.20
2023-04-07T16:29:08.778Z,64.50
2023-04-07T16:44:13.284Z,63.50
2023-04-07T16:59:17.939Z,65.70
2023-04-07T17:14:23.360Z,63.50
2023-04-07T17:29:29.164Z,61.70
2023-04-07T17:44:34.132Z,65.00
2023-04-07T17:59:38.597Z,63.00
2023-04-07T18:14:43.086Z,69.40
2023-04-07T18:29:47.634Z,73.60
2023-04-07T18:44:52.109Z,77.40
2023-04-07T18:59:56.893Z,79.00
2023-04-07T19:15:01.427Z,79.40
2023-04-07T19:30:07.045Z,81.20
2023-04-07T19:45:12.805Z,80.80
2023-04-07T20:00:18.284Z,80.80
2023-04-07T20:15:25.744Z,81.90
2023-04-07T20:30:30.486Z,83.60
2023-04-07T20:45:39.450Z,85.70
2023-04-07T21:00:44.294Z,87.00
2023-04-07T21:15:49.062Z,87.40
2023-04-07T21:30:55.778Z,86.90
2023-04-07T21:46:00.476Z,87.90
2023-04-07T22:01:05.069Z,89.40
2023-04-07T22:16:09.762Z,89.30
2023-04-07T22:31:14.424Z,89.90
2023-04-07T22:46:19.041Z,90.20
2023-04-07T23:01:23.598Z,90.50
2023-04-07T23:16:28.230Z,90.40
2023-04-07T23:31:36.153Z,90.60
2023-04-07T23:46:40.606Z,90.80
